createdAt,value
2023-02-19T00:01:09.964Z,79.84
2023-02-19T00:03:11.879Z,79.39
2023-02-19T00:05:13.648Z,79.46
2023-02-19T00:07:15.418Z,79.41
2023-02-19T00:09:19.022Z,79.77
2023-02-19T00:11:22.830Z,79.52
2023-02-19T00:13:25.707Z,79.60
2023-02-19T00:15:27.979Z,79.43
2023-02-19T00:17:33.618Z,79.20
2023-02-19T00:19:35.436Z,78.98
2023-02-19T00:21:37.450Z,79.80
2023-02-19T00:23:39.787Z,79.16
2023-02-19T00:25:41.911Z,79.75
2023-02-19T00:27:43.914Z,79.39
2023-02-19T00:29:45.839Z,79.58
2023-02-19T00:31:51.139Z,79.90
2023-02-19T00:33:57.125Z,79.82
2023-02-19T00:36:03.352Z,79.04
2023-02-19T00:38:05.408Z,79.60
2023-02-19T00:40:08.256Z,79.57
2023-02-19T00:42:11.524Z,79.44
2023-02-19T00:44:13.783Z,79.71
2023-02-19T00:46:16.260Z,79.60
2023-02-19T00:48:18.570Z,79.34
2023-02-19T00:50:22.072Z,79.14
2023-02-19T00:52:24.178Z,79.17
2023-02-19T00:54:26.233Z,79.38
2023-02-19T00:56:29.161Z,79.00
2023-02-19T00:58:31.206Z,79.82
2023-02-19T01:00:32.962Z,79.05
2023-02-19T01:02:34.532Z,78.95
2023-02-19T01:04:36.322Z,79.23
2023-02-19T01:06:39.669Z,79.18
2023-02-19T01:08:41.876Z,78.95
2023-02-19T01:10:43.834Z,78.77
2023-02-19T01:12:45.705Z,79.07
2023-02-19T01:14:47.440Z,79.27
2023-02-19T01:16:49.356Z,79.15
2023-02-19T01:18:51.889Z,78.82
2023-02-19T01:20:53.704Z,79.39
2023-02-19T01:22:56.753Z,79.18
2023-02-19T01:24:58.583Z,79.30
2023-02-19T01:27:00.118Z,79.52
2023-02-19T01:29:02.168Z,78.97
2023-02-19T01:31:05.096Z,79.40
2023-02-19T01:33:10.343Z,79.55
2023-02-19T01:35:11.912Z,79.27
2023-02-19T01:37:13.752Z,79.30
2023-02-19T01:39:16.857Z,79.72
2023-02-19T01:41:21.587Z,79.62
2023-02-19T01:43:23.714Z,80.01
2023-02-19T01:45:29.028Z,79.58
2023-02-19T01:47:31.944Z,79.24
2023-02-19T01:49:38.471Z,80.12
2023-02-19T01:51:44.853Z,80.15
2023-02-19T01:53:52.961Z,80.31
2023-02-19T01:55:59.445Z,80.07
2023-02-19T01:58:03.322Z,80.05
2023-02-19T02:00:09.719Z,80.52
2023-02-19T02:02:11.837Z,80.17
2023-02-19T02:04:14.801Z,80.02
2023-02-19T02:06:22.630Z,80.31
2023-02-19T02:08:26.603Z,80.36
2023-02-19T02:10:29.326Z,80.01
2023-02-19T02:12:32.597Z,80.00
2023-02-19T02:14:39.304Z,79.87
2023-02-19T02:16:54.600Z,80.33
2023-02-19T02:19:04.124Z,80.23
2023-02-19T02:21:25.109Z,80.24
2023-02-19T02:23:40.833Z,79.86
2023-02-19T02:26:00.130Z,80.12
2023-02-19T02:28:21.294Z,79.65
2023-02-19T02:30:32.654Z,80.38
2023-02-19T02:32:40.791Z,80.61
2023-02-19T02:34:49.075Z,80.29
2023-02-19T02:37:00.572Z,80.38
2023-02-19T02:39:05.023Z,80.43
2023-02-19T02:41:07.888Z,80.46
2023-02-19T02:43:09.580Z,80.89
2023-02-19T02:45:28.835Z,80.15
2023-02-19T02:47:35.386Z,80.22
2023-02-19T02:49:38.679Z,80.04
2023-02-19T02:51:44.122Z,80.74
2023-02-19T02:53:51.820Z,80.83
2023-02-19T02:55:55.126Z,80.66
2023-02-19T02:57:56.956Z,80.29
2023-02-19T02:59:58.690Z,80.58
2023-02-19T03:02:06.612Z,80.17
2023-02-19T03:04:12.335Z,80.71
2023-02-19T03:06:25.726Z,80.56
2023-02-19T03:08:32.251Z,80.82
2023-02-19T03:10:38.383Z,80.12
2023-02-19T03:12:43.841Z,80.93
2023-02-19T03:14:49.097Z,80.65
2023-02-19T03:16:52.514Z,80.37
2023-02-19T03:18:59.588Z,80.56
2023-02-19T03:21:03.759Z,80.86
2023-02-19T03:23:07.868Z,80.56
2023-02-19T03:25:14.463Z,80.78
2023-02-19T03:27:18.844Z,80.77
2023-02-19T03:29:23.362Z,80.48
2023-02-19T03:31:29.969Z,81.01
2023-02-19T03:33:32.005Z,80.88
2023-02-19T03:35:38.224Z,81.01
2023-02-19T03:37:44.990Z,81.05
2023-02-19T03:39:46.994Z,80.73
2023-02-19T03:41:57.952Z,80.36
2023-02-19T03:44:10.214Z,80.78
2023-02-19T03:46:15.560Z,80.53
2023-02-19T03:48:25.153Z,80.51
2023-02-19T03:50:32.338Z,80.65
2023-02-19T03:52:42.069Z,80.96
2023-02-19T03:54:52.615Z,80.89
2023-02-19T03:57:01.741Z,80.90
2023-02-19T03:59:12.335Z,80.19
2023-02-19T04:01:19.835Z,80.84
2023-02-19T04:03:29.325Z,80.81
2023-02-19T04:05:35.854Z,80.75
2023-02-19T04:07:45.048Z,80.98
2023-02-19T04:09:50.767Z,80.36
2023-02-19T04:11:55.085Z,80.96
2023-02-19T04:14:01.744Z,80.71
2023-02-19T04:16:11.956Z,80.87
2023-02-19T04:18:18.005Z,80.45
2023-02-19T04:20:22.349Z,81.19
2023-02-19T04:22:25.122Z,80.98
2023-02-19T04:24:33.749Z,80.77
2023-02-19T04:26:35.930Z,80.82
2023-02-19T04:28:40.543Z,80.28
2023-02-19T04:30:43.234Z,80.19
2023-02-19T04:32:45.364Z,80.75
2023-02-19T04:34:47.254Z,80.66
2023-02-19T04:36:49.275Z,80.52
2023-02-19T04:38:51.210Z,80.13
2023-02-19T04:40:54.641Z,80.79
2023-02-19T04:42:56.456Z,80.61
2023-02-19T04:44:58.279Z,80.10
2023-02-19T04:47:00.354Z,80.21
2023-02-19T04:49:02.193Z,80.05
2023-02-19T04:51:12.390Z,79.89
2023-02-19T04:53:14.185Z,80.35
2023-02-19T04:55:16.041Z,79.70
2023-02-19T04:57:20.068Z,80.82
2023-02-19T04:59:21.706Z,79.96
2023-02-19T05:01:24.421Z,80.23
2023-02-19T05:03:26.139Z,79.64
2023-02-19T05:05:28.392Z,80.43
2023-02-19T05:07:30.186Z,79.91
2023-02-19T05:09:31.927Z,79.67
2023-02-19T05:11:33.861Z,80.17
2023-02-19T05:13:38.255Z,80.58
2023-02-19T05:15:39.971Z,80.28
2023-02-19T05:17:43.771Z,79.94
2023-02-19T05:19:45.574Z,79.89
2023-02-19T05:21:47.444Z,79.86
2023-02-19T05:23:49.322Z,79.71
2023-02-19T05:25:51.068Z,79.75
2023-02-19T05:27:52.896Z,79.78
2023-02-19T05:29:56.727Z,79.58
2023-02-19T05:31:58.589Z,79.51
2023-02-19T05:34:00.312Z,79.84
2023-02-19T05:36:06.975Z,79.93
2023-02-19T05:38:09.165Z,79.69
2023-02-19T05:40:17.753Z,78.99
2023-02-19T05:42:23.710Z,79.46
2023-02-19T05:44:25.428Z,79.16
2023-02-19T05:46:33.401Z,79.33
2023-02-19T05:48:35.674Z,78.76
2023-02-19T05:50:39.689Z,78.85
2023-02-19T05:52:41.630Z,78.63
2023-02-19T05:54:43.584Z,79.14
2023-02-19T05:56:45.330Z,78.68
2023-02-19T05:59:00.271Z,78.53
2023-02-19T06:01:03.340Z,78.21
2023-02-19T06:03:20.094Z,78.70
2023-02-19T06:05:23.755Z,78.78
2023-02-19T06:07:25.485Z,78.22
2023-02-19T06:09:31.219Z,78.40
2023-02-19T06:11:34.146Z,77.95
2023-02-19T06:13:36.541Z,78.35
2023-02-19T06:15:38.613Z,78.00
2023-02-19T06:17:41.038Z,77.71
2023-02-19T06:19:44.316Z,77.44
2023-02-19T06:21:46.618Z,77.55
2023-02-19T06:23:48.237Z,77.42
2023-02-19T06:25:51.463Z,77.50
2023-02-19T06:27:53.239Z,77.97
2023-02-19T06:29:58.468Z,77.51
2023-02-19T06:32:00.440Z,76.95
2023-02-19T06:34:05.256Z,77.03
2023-02-19T06:36:15.316Z,77.21
2023-02-19T06:38:16.976Z,77.17
2023-02-19T06:40:19.271Z,77.03
2023-02-19T06:42:20.938Z,77.17
2023-02-19T06:44:22.878Z,77.32
2023-02-19T06:46:24.836Z,76.84
2023-02-19T06:48:27.219Z,76.79
2023-02-19T06:50:29.180Z,77.09
2023-02-19T06:52:32.471Z,76.92
2023-02-19T06:54:36.803Z,76.42
2023-02-19T06:56:39.989Z,76.70
2023-02-19T06:58:41.539Z,76.81
2023-02-19T07:00:43.191Z,76.69
2023-02-19T07:02:44.885Z,76.86
2023-02-19T07:04:46.568Z,77.05
2023-02-19T07:06:48.417Z,76.98
2023-02-19T07:08:52.925Z,77.09
2023-02-19T07:10:55.140Z,76.73
2023-02-19T07:12:57.011Z,76.57
2023-02-19T07:14:58.729Z,77.01
2023-02-19T07:17:00.389Z,76.87
2023-02-19T07:19:02.571Z,76.89
2023-02-19T07:21:05.332Z,76.93
2023-02-19T07:23:08.514Z,76.95
2023-02-19T07:25:11.642Z,76.96
2023-02-19T07:27:13.392Z,77.04
2023-02-19T07:29:15.099Z,76.74
2023-02-19T07:31:19.757Z,76.47
2023-02-19T07:33:21.500Z,76.65
2023-02-19T07:35:24.458Z,76.80
2023-02-19T07:37:27.052Z,76.72
2023-02-19T07:39:29.445Z,76.76
2023-02-19T07:41:32.876Z,77.00
2023-02-19T07:43:36.687Z,76.57
2023-02-19T07:45:38.567Z,76.99
2023-02-19T07:47:40.282Z,76.15
2023-02-19T07:49:42.074Z,76.28
2023-02-19T07:51:43.782Z,76.50
2023-02-19T07:53:46.173Z,76.12
2023-02-19T07:55:48.260Z,75.70
2023-02-19T07:57:51.226Z,76.24
2023-02-19T07:59:53.088Z,75.97
2023-02-19T08:01:55.735Z,75.73
2023-02-19T08:03:58.186Z,75.43
2023-02-19T08:05:59.752Z,74.90
2023-02-19T08:08:01.841Z,74.84
2023-02-19T08:10:04.738Z,75.37
2023-02-19T08:12:06.773Z,74.73
2023-02-19T08:14:10.253Z,74.67
2023-02-19T08:16:21.874Z,74.55
2023-02-19T08:18:30.649Z,74.24
2023-02-19T08:20:32.410Z,74.65
2023-02-19T08:22:33.996Z,74.58
2023-02-19T08:24:35.730Z,73.82
2023-02-19T08:26:37.729Z,73.86
2023-02-19T08:28:39.496Z,73.99
2023-02-19T08:30:44.820Z,74.77
2023-02-19T08:32:46.558Z,73.96
2023-02-19T08:34:48.281Z,73.57
2023-02-19T08:36:49.974Z,73.72
2023-02-19T08:38:52.019Z,73.85
2023-02-19T08:40:53.735Z,74.27
2023-02-19T08:42:55.486Z,73.44
2023-02-19T08:44:57.356Z,73.08
2023-02-19T08:47:00.765Z,73.17
2023-02-19T08:49:03.215Z,72.79
2023-02-19T08:51:06.802Z,72.51
2023-02-19T08:53:08.502Z,71.79
2023-02-19T08:55:10.329Z,72.38
2023-02-19T08:57:12.394Z,71.27
2023-02-19T08:59:14.350Z,70.91
2023-02-19T09:01:19.787Z,71.13
2023-02-19T09:03:23.107Z,71.26
2023-02-19T09:05:25.064Z,70.38
2023-02-19T09:07:26.840Z,70.58
2023-02-19T09:09:28.653Z,69.66
2023-02-19T09:11:31.801Z,68.30
2023-02-19T09:13:33.506Z,68.72
2023-02-19T09:15:35.153Z,67.57
2023-02-19T09:17:36.758Z,67.15
2023-02-19T09:19:40.262Z,67.68
2023-02-19T09:21:43.281Z,68.10
2023-02-19T09:23:44.869Z,68.04
2023-02-19T09:25:46.873Z,68.20
2023-02-19T09:27:48.500Z,68.44
2023-02-19T09:29:54.012Z,68.44
2023-02-19T09:32:00.003Z,67.31
2023-02-19T09:34:01.724Z,66.67
2023-02-19T09:36:07.812Z,67.37
2023-02-19T09:38:10.177Z,65.80
2023-02-19T09:40:16.154Z,63.60
2023-02-19T09:42:20.867Z,65.79
2023-02-19T09:44:29.368Z,66.30
2023-02-19T09:46:43.428Z,65.38
2023-02-19T09:48:47.952Z,62.60
2023-02-19T09:50:55.426Z,62.96
2023-02-19T09:53:05.398Z,64.70
2023-02-19T09:55:18.222Z,61.08
2023-02-19T09:57:22.203Z,60.83
2023-02-19T09:59:27.015Z,61.90
2023-02-19T10:01:38.317Z,62.82
2023-02-19T10:03:44.795Z,59.20
2023-02-19T10:05:46.878Z,60.32
2023-02-19T10:07:55.730Z,58.87
2023-02-19T10:10:03.753Z,61.02
2023-02-19T10:12:14.655Z,61.76
2023-02-19T10:14:22.609Z,61.02
2023-02-19T10:16:27.236Z,58.69
2023-02-19T10:18:36.259Z,58.04
2023-02-19T10:20:38.422Z,57.53
2023-02-19T10:22:44.122Z,56.34
2023-02-19T10:24:49.737Z,57.39
2023-02-19T10:26:56.980Z,58.58
2023-02-19T10:28:58.639Z,57.20
2023-02-19T10:31:02.390Z,55.41
2023-02-19T10:33:10.598Z,57.05
2023-02-19T10:35:15.362Z,55.57
2023-02-19T10:37:19.032Z,55.59
2023-02-19T10:39:43.616Z,57.73
2023-02-19T10:41:48.276Z,55.34
2023-02-19T10:44:00.982Z,57.21
2023-02-19T10:46:06.652Z,55.38
2023-02-19T10:48:24.476Z,58.24
2023-02-19T10:50:31.452Z,54.50
2023-02-19T10:52:35.564Z,51.80
2023-02-19T10:54:37.912Z,53.19
2023-02-19T10:56:43.340Z,55.23
2023-02-19T10:58:45.214Z,54.71
2023-02-19T11:00:50.020Z,52.08
2023-02-19T11:03:19.621Z,54.32
2023-02-19T11:05:22.100Z,50.56
2023-02-19T11:07:23.705Z,52.87
2023-02-19T11:09:32.884Z,52.08
2023-02-19T11:11:37.552Z,51.02
2023-02-19T11:13:42.870Z,54.74
2023-02-19T11:15:53.623Z,51.49
2023-02-19T11:17:59.538Z,53.27
2023-02-19T11:20:07.412Z,54.50
2023-02-19T11:22:31.668Z,54.81
2023-02-19T11:24:37.102Z,49.80
2023-02-19T11:26:39.865Z,51.50
2023-02-19T11:28:43.041Z,49.47
2023-02-19T11:30:46.342Z,48.27
2023-02-19T11:32:48.888Z,48.75
2023-02-19T11:34:53.310Z,48.47
2023-02-19T11:37:10.839Z,52.46
2023-02-19T11:39:25.724Z,51.52
2023-02-19T11:41:51.517Z,50.04
2023-02-19T11:44:07.504Z,50.44
2023-02-19T11:46:15.589Z,48.75
2023-02-19T11:48:36.823Z,49.49
2023-02-19T11:50:50.677Z,48.21
2023-02-19T11:53:05.054Z,45.48
2023-02-19T11:55:17.114Z,45.21
2023-02-19T11:57:40.759Z,48.63
2023-02-19T11:59:48.554Z,46.37
2023-02-19T12:02:07.037Z,48.47
2023-02-19T12:04:42.156Z,47.86
2023-02-19T12:06:58.256Z,48.20
2023-02-19T12:09:29.841Z,49.18
2023-02-19T12:11:47.791Z,49.98
2023-02-19T12:14:09.167Z,50.28
2023-02-19T12:16:20.804Z,49.56
2023-02-19T12:19:01.535Z,50.69
2023-02-19T12:21:18.177Z,51.09
2023-02-19T12:23:58.298Z,51.87
2023-02-19T12:26:10.140Z,49.72
2023-02-19T12:28:34.571Z,49.82
2023-02-19T12:30:59.764Z,47.43
2023-02-19T12:33:35.999Z,47.28
2023-02-19T12:35:47.682Z,44.62
2023-02-19T12:37:58.962Z,46.51
2023-02-19T12:40:17.656Z,44.63
2023-02-19T12:42:37.730Z,42.82
2023-02-19T12:44:46.485Z,44.60
2023-02-19T12:46:53.400Z,44.73
2023-02-19T12:49:00.010Z,44.67
2023-02-19T12:51:08.135Z,44.19
2023-02-19T12:53:24.848Z,43.36
2023-02-19T12:55:33.404Z,44.19
2023-02-19T12:57:39.262Z,42.86
2023-02-19T12:59:48.275Z,42.32
2023-02-19T13:01:56.649Z,42.94
2023-02-19T13:04:14.804Z,45.29
2023-02-19T13:06:31.330Z,45.74
2023-02-19T13:08:48.819Z,44.49
2023-02-19T13:11:01.546Z,44.25
2023-02-19T13:13:07.054Z,42.96
2023-02-19T13:15:17.556Z,44.35
2023-02-19T13:17:26.478Z,44.34
2023-02-19T13:19:29.120Z,42.69
2023-02-19T13:21:35.886Z,44.59
2023-02-19T13:23:42.060Z,44.42
2023-02-19T13:25:58.528Z,42.90
2023-02-19T13:28:27.236Z,41.75
2023-02-19T13:30:40.540Z,42.81
2023-02-19T13:33:03.084Z,43.93
2023-02-19T13:35:22.866Z,43.35
2023-02-19T13:37:26.410Z,41.92
2023-02-19T13:39:31.010Z,42.66
2023-02-19T13:41:39.437Z,43.11
2023-02-19T13:43:43.552Z,42.94
2023-02-19T13:45:47.087Z,43.38
2023-02-19T13:47:58.695Z,43.81
2023-02-19T13:50:06.885Z,44.33
2023-02-19T13:52:37.719Z,43.17
2023-02-19T13:54:39.440Z,42.31
2023-02-19T13:56:42.573Z,41.97
2023-02-19T13:58:58.437Z,42.07
2023-02-19T14:01:01.731Z,42.52
2023-02-19T14:03:29.896Z,44.64
2023-02-19T14:06:00.865Z,43.33
2023-02-19T14:08:02.902Z,42.46
2023-02-19T14:10:11.928Z,44.63
2023-02-19T14:12:24.584Z,44.91
2023-02-19T14:14:35.037Z,43.46
2023-02-19T14:16:58.345Z,44.05
2023-02-19T14:18:59.871Z,43.10
2023-02-19T14:21:14.169Z,44.58
2023-02-19T14:23:17.305Z,43.29
2023-02-19T14:25:28.356Z,44.30
2023-02-19T14:27:30.177Z,44.10
2023-02-19T14:29:34.269Z,43.61
2023-02-19T14:31:38.306Z,43.52
2023-02-19T14:33:45.088Z,43.37
2023-02-19T14:35:51.226Z,42.69
2023-02-19T14:37:56.146Z,42.76
2023-02-19T14:39:58.567Z,42.94
2023-02-19T14:42:03.285Z,43.51
2023-02-19T14:44:07.884Z,43.42
2023-02-19T14:46:20.038Z,42.16
2023-02-19T14:48:26.465Z,43.74
2023-02-19T14:50:30.518Z,43.00
2023-02-19T14:52:36.052Z,43.78
2023-02-19T14:54:43.379Z,43.88
2023-02-19T14:56:49.126Z,43.36
2023-02-19T14:59:21.210Z,43.15
2023-02-19T15:01:28.448Z,42.44
2023-02-19T15:03:33.818Z,41.58
2023-02-19T15:05:37.945Z,41.44
2023-02-19T15:07:42.132Z,42.19
2023-02-19T15:09:47.222Z,42.62
2023-02-19T15:11:49.612Z,42.00
2023-02-19T15:13:54.560Z,42.71
2023-02-19T15:15:56.991Z,41.91
2023-02-19T15:18:02.444Z,43.13
2023-02-19T15:20:10.165Z,42.46
2023-02-19T15:22:18.080Z,43.48
2023-02-19T15:24:20.091Z,42.78
2023-02-19T15:26:24.744Z,42.55
2023-02-19T15:28:31.515Z,42.84
2023-02-19T15:30:33.422Z,42.51
2023-02-19T15:32:35.092Z,42.53
2023-02-19T15:34:38.348Z,43.75
2023-02-19T15:36:40.130Z,42.95
2023-02-19T15:38:41.727Z,44.22
2023-02-19T15:40:45.157Z,43.87
2023-02-19T15:42:47.973Z,44.69
2023-02-19T15:44:55.603Z,45.43
2023-02-19T15:47:00.227Z,44.95
2023-02-19T15:49:06.596Z,45.61
2023-02-19T15:51:16.738Z,46.65
2023-02-19T15:53:23.494Z,45.92
2023-02-19T15:55:32.923Z,46.58
2023-02-19T15:57:39.185Z,46.76
2023-02-19T15:59:46.746Z,47.12
2023-02-19T16:01:48.865Z,46.24
2023-02-19T16:03:51.303Z,46.63
2023-02-19T16:06:00.792Z,48.21
2023-02-19T16:08:16.240Z,47.61
2023-02-19T16:10:23.104Z,47.74
2023-02-19T16:12:25.654Z,47.77
2023-02-19T16:14:32.983Z,48.96
2023-02-19T16:16:40.512Z,47.85
2023-02-19T16:18:45.425Z,48.63
2023-02-19T16:20:47.940Z,48.63
2023-02-19T16:22:50.610Z,48.98
2023-02-19T16:24:56.238Z,49.43
2023-02-19T16:26:58.741Z,49.53
2023-02-19T16:29:00.415Z,49.63
2023-02-19T16:31:04.766Z,50.31
2023-02-19T16:33:33.537Z,49.97
2023-02-19T16:35:36.689Z,50.32
2023-02-19T16:37:40.826Z,51.01
2023-02-19T16:39:42.800Z,50.46
2023-02-19T16:42:12.263Z,52.03
2023-02-19T16:44:30.819Z,51.72
2023-02-19T16:46:33.430Z,50.94
2023-02-19T16:48:36.845Z,51.55
2023-02-19T16:50:40.126Z,52.13
2023-02-19T16:52:52.034Z,52.56
2023-02-19T16:54:53.621Z,52.33
2023-02-19T16:56:55.687Z,53.08
2023-02-19T16:58:58.919Z,53.00
2023-02-19T17:01:00.559Z,53.19
2023-02-19T17:03:07.201Z,53.74
2023-02-19T17:05:09.075Z,53.84
2023-02-19T17:07:14.334Z,54.25
2023-02-19T17:09:16.187Z,54.33
2023-02-19T17:11:18.218Z,55.25
2023-02-19T17:13:19.975Z,55.59
2023-02-19T17:15:23.197Z,55.24
2023-02-19T17:17:24.781Z,55.41
2023-02-19T17:19:26.356Z,55.82
2023-02-19T17:21:29.613Z,55.89
2023-02-19T17:23:31.171Z,56.17
2023-02-19T17:25:32.740Z,57.03
2023-02-19T17:27:34.660Z,56.60
2023-02-19T17:29:36.490Z,56.98
2023-02-19T17:31:39.556Z,57.12
2023-02-19T17:33:41.540Z,57.82
2023-02-19T17:35:43.090Z,57.06
2023-02-19T17:37:44.740Z,57.58
2023-02-19T17:39:46.334Z,57.81
2023-02-19T17:41:47.855Z,57.52
2023-02-19T17:43:49.683Z,57.86
2023-02-19T17:45:51.593Z,57.90
2023-02-19T17:47:54.740Z,57.98
2023-02-19T17:49:56.282Z,57.62
2023-02-19T17:51:58.073Z,58.45
2023-02-19T17:53:59.781Z,58.37
2023-02-19T17:56:01.462Z,58.17
2023-02-19T17:58:04.617Z,58.51
2023-02-19T18:00:07.580Z,58.20
2023-02-19T18:02:09.484Z,58.15
2023-02-19T18:04:12.612Z,58.60
2023-02-19T18:06:14.244Z,57.73
2023-02-19T18:08:16.126Z,58.60
2023-02-19T18:10:19.649Z,58.34
2023-02-19T18:12:21.322Z,57.84
2023-02-19T18:14:23.396Z,58.41
2023-02-19T18:16:25.169Z,58.36
2023-02-19T18:18:26.733Z,58.37
2023-02-19T18:20:29.957Z,58.54
2023-02-19T18:22:32.082Z,58.63
2023-02-19T18:24:33.597Z,58.13
2023-02-19T18:26:35.126Z,58.34
2023-02-19T18:28:37.452Z,58.62
2023-02-19T18:30:39.074Z,58.64
2023-02-19T18:32:41.010Z,58.52
2023-02-19T18:34:42.659Z,58.15
2023-02-19T18:36:45.926Z,58.49
2023-02-19T18:38:47.752Z,58.18
2023-02-19T18:40:49.804Z,57.93
2023-02-19T18:42:51.502Z,58.03
2023-02-19T18:44:53.657Z,57.67
2023-02-19T18:46:55.214Z,57.53
2023-02-19T18:48:56.757Z,57.23
2023-02-19T18:50:58.311Z,58.04
2023-02-19T18:53:01.344Z,57.94
2023-02-19T18:55:03.056Z,57.67
2023-02-19T18:57:04.713Z,58.19
2023-02-19T18:59:06.342Z,57.53
2023-02-19T19:01:08.139Z,57.83
2023-02-19T19:03:09.707Z,56.95
2023-02-19T19:05:11.608Z,57.64
2023-02-19T19:07:13.155Z,57.31
2023-02-19T19:09:16.037Z,57.73
2023-02-19T19:11:19.100Z,57.74
2023-02-19T19:13:20.612Z,57.41
2023-02-19T19:15:23.049Z,57.28
2023-02-19T19:17:24.660Z,56.90
2023-02-19T19:19:26.264Z,57.44
2023-02-19T19:21:27.888Z,57.25
2023-02-19T19:23:29.514Z,57.48
2023-02-19T19:25:32.765Z,57.29
2023-02-19T19:27:34.863Z,57.19
2023-02-19T19:29:36.478Z,56.93
2023-02-19T19:31:38.108Z,56.97
2023-02-19T19:33:40.718Z,57.61
2023-02-19T19:35:42.506Z,57.30
2023-02-19T19:37:44.082Z,57.05
2023-02-19T19:39:45.932Z,57.38
2023-02-19T19:41:54.030Z,57.84
2023-02-19T19:43:56.086Z,57.97
2023-02-19T19:45:58.140Z,58.14
2023-02-19T19:47:59.799Z,58.14
2023-02-19T19:50:01.492Z,57.54
2023-02-19T19:52:03.261Z,58.31
2023-02-19T19:54:04.885Z,58.31
2023-02-19T19:56:07.721Z,58.61
2023-02-19T19:58:11.332Z,58.48
2023-02-19T20:00:15.053Z,58.84
2023-02-19T20:02:17.690Z,59.05
2023-02-19T20:04:20.713Z,58.88
2023-02-19T20:06:24.555Z,59.20
2023-02-19T20:08:26.171Z,59.13
2023-02-19T20:10:27.904Z,59.23
2023-02-19T20:12:29.479Z,59.44
2023-02-19T20:14:32.459Z,60.20
2023-02-19T20:16:33.980Z,59.42
2023-02-19T20:18:35.608Z,60.34
2023-02-19T20:20:37.393Z,59.93
2023-02-19T20:22:39.023Z,60.06
2023-02-19T20:24:40.912Z,60.28
2023-02-19T20:26:43.317Z,60.51
2023-02-19T20:28:44.874Z,60.52
2023-02-19T20:30:47.827Z,60.89
2023-02-19T20:32:50.476Z,61.02
2023-02-19T20:34:52.105Z,60.89
2023-02-19T20:36:57.287Z,61.25
2023-02-19T20:38:58.892Z,61.73
2023-02-19T20:41:00.448Z,61.45
2023-02-19T20:43:02.250Z,61.99
2023-02-19T20:45:04.184Z,62.19
2023-02-19T20:47:08.116Z,62.31
2023-02-19T20:49:09.915Z,62.28
2023-02-19T20:51:11.762Z,62.51
2023-02-19T20:53:13.657Z,62.81
2023-02-19T20:55:15.300Z,62.77
2023-02-19T20:57:16.926Z,63.81
2023-02-19T20:59:20.123Z,63.40
2023-02-19T21:01:25.882Z,64.02
2023-02-19T21:03:28.863Z,64.22
2023-02-19T21:05:30.363Z,64.54
2023-02-19T21:07:32.211Z,64.70
2023-02-19T21:09:33.746Z,64.69
2023-02-19T21:11:37.271Z,65.41
2023-02-19T21:13:38.867Z,65.89
2023-02-19T21:15:40.729Z,65.58
2023-02-19T21:17:45.062Z,65.93
2023-02-19T21:19:50.233Z,65.75
2023-02-19T21:21:52.014Z,66.43
2023-02-19T21:23:53.983Z,66.63
2023-02-19T21:25:55.506Z,66.66
2023-02-19T21:27:57.434Z,66.88
2023-02-19T21:29:59.231Z,67.17
2023-02-19T21:32:00.942Z,67.65
2023-02-19T21:34:04.383Z,66.87
2023-02-19T21:36:09.651Z,66.85
2023-02-19T21:38:11.342Z,67.49
2023-02-19T21:40:13.825Z,67.36
2023-02-19T21:42:15.651Z,67.17
2023-02-19T21:44:17.775Z,67.48
2023-02-19T21:46:19.880Z,67.94
2023-02-19T21:48:22.235Z,67.89
2023-02-19T21:50:24.331Z,67.76
2023-02-19T21:52:27.317Z,67.79
2023-02-19T21:54:28.862Z,68.10
2023-02-19T21:56:32.589Z,68.36
2023-02-19T21:58:35.140Z,67.78
2023-02-19T22:00:36.724Z,68.01
2023-02-19T22:02:38.417Z,67.90
2023-02-19T22:04:40.014Z,68.50
2023-02-19T22:06:42.273Z,68.20
2023-02-19T22:08:45.332Z,68.71
2023-02-19T22:10:47.367Z,68.03
2023-02-19T22:12:48.909Z,68.62
2023-02-19T22:14:50.432Z,68.91
2023-02-19T22:16:52.041Z,68.77
2023-02-19T22:18:55.588Z,69.05
2023-02-19T22:20:57.263Z,68.48
2023-02-19T22:22:58.764Z,68.56
2023-02-19T22:25:01.733Z,68.79
2023-02-19T22:27:03.793Z,69.60
2023-02-19T22:29:05.702Z,69.54
2023-02-19T22:31:08.314Z,69.93
2023-02-19T22:33:10.227Z,70.00
2023-02-19T22:35:13.748Z,70.35
2023-02-19T22:37:16.546Z,70.22
2023-02-19T22:39:21.266Z,69.75
2023-02-19T22:41:24.280Z,70.85
2023-02-19T22:43:25.821Z,70.47
2023-02-19T22:45:27.574Z,70.76
2023-02-19T22:47:29.371Z,70.37
2023-02-19T22:49:31.479Z,70.93
2023-02-19T22:51:34.037Z,70.69
2023-02-19T22:53:35.685Z,70.73
2023-02-19T22:55:37.402Z,71.10
2023-02-19T22:57:40.342Z,71.37
2023-02-19T22:59:41.985Z,71.04
2023-02-19T23:01:43.682Z,71.31
2023-02-19T23:03:46.662Z,71.25
2023-02-19T23:05:48.518Z,71.73
2023-02-19T23:07:50.735Z,71.53
2023-02-19T23:09:52.557Z,71.75
2023-02-19T23:12:01.332Z,71.11
2023-02-19T23:14:05.315Z,71.62
2023-02-19T23:16:07.292Z,72.05
2023-02-19T23:18:08.940Z,72.35
2023-02-19T23:20:11.298Z,71.82
2023-02-19T23:22:12.838Z,71.51
2023-02-19T23:24:14.534Z,72.35
2023-02-19T23:26:17.164Z,71.79
2023-02-19T23:28:18.774Z,71.99
2023-02-19T23:30:22.223Z,71.78
2023-02-19T23:32:24.394Z,72.24
2023-02-19T23:34:26.019Z,72.08
2023-02-19T23:36:27.610Z,72.38
2023-02-19T23:38:29.504Z,72.78
2023-02-19T23:40:31.178Z,71.91
2023-02-19T23:42:32.732Z,72.55
2023-02-19T23:44:34.299Z,71.82
2023-02-19T23:46:37.256Z,72.08
2023-02-19T23:48:38.887Z,71.99
2023-02-19T23:50:40.568Z,71.78
2023-02-19T23:52:42.295Z,72.12
2023-02-19T23:54:43.862Z,72.06
2023-02-19T23:56:45.482Z,71.80
2023-02-19T23:58:47.398Z,71.72
